sensor_id;sensor_type;location;lat;lon;timestamp;temperature;humidity
62339;DHT22;48368;53.406;6.214;2023-12-20T00:01:54;6.30;99.90
62339;DHT22;48368;53.406;6.214;2023-12-20T00:04:20;6.30;99.90
62339;DHT22;48368;53.406;6.214;2023-12-20T00:06:45;6.30;99.90
62339;DHT22;48368;53.406;6.214;2023-12-20T00:09:11;6.30;99.90
62339;DHT22;48368;53.406;6.214;2023-12-20T00:11:37;6.30;99.90
62339;DHT22;48368;53.406;6.214;2023-12-20T00:14:02;6.30;99.90
62339;DHT22;48368;53.406;6.214;2023-12-20T00:16:28;6.30;99.90
62339;DHT22;48368;53.406;6.214;2023-12-20T00:18:53;6.30;99.90
62339;DHT22;48368;53.406;6.214;2023-12-20T00:21:19;6.20;99.90
62339;DHT22;48368;53.406;6.214;2023-12-20T00:23:45;6.20;99.90
62339;DHT22;48368;53.406;6.214;2023-12-20T00:26:10;6.30;99.90
62339;DHT22;48368;53.406;6.214;2023-12-20T00:28:36;6.40;99.90
62339;DHT22;48368;53.406;6.214;2023-12-20T00:31:07;6.40;99.90
62339;DHT22;48368;53.406;6.214;2023-12-20T00:33:32;6.40;99.90
62339;DHT22;48368;53.406;6.214;2023-12-20T00:35:58;6.40;99.90
62339;DHT22;48368;53.406;6.214;2023-12-20T00:38:23;6.40;99.90
62339;DHT22;48368;53.406;6.214;2023-12-20T00:40:52;6.40;99.90
62339;DHT22;48368;53.406;6.214;2023-12-20T00:43:17;6.30;99.90
62339;DHT22;48368;53.406;6.214;2023-12-20T00:45:43;6.40;99.90
62339;DHT22;48368;53.406;6.214;2023-12-20T00:48:09;6.40;99.90
62339;DHT22;48368;53.406;6.214;2023-12-20T00:50:37;6.40;99.90
62339;DHT22;48368;53.406;6.214;2023-12-20T00:53:05;6.30;99.90
62339;DHT22;48368;53.406;6.214;2023-12-20T00:55:31;6.30;99.90
62339;DHT22;48368;53.406;6.214;2023-12-20T00:57:56;6.40;99.90
62339;DHT22;48368;53.406;6.214;2023-12-20T01:00:22;6.30;99.90
62339;DHT22;48368;53.406;6.214;2023-12-20T01:02:48;6.40;99.90
62339;DHT22;48368;53.406;6.214;2023-12-20T01:05:15;6.40;99.90
62339;DHT22;48368;53.406;6.214;2023-12-20T01:07:40;6.40;99.90
62339;DHT22;48368;53.406;6.214;2023-12-20T01:10:09;6.40;99.90
62339;DHT22;48368;53.406;6.214;2023-12-20T01:12:36;6.50;99.90
62339;DHT22;48368;53.406;6.214;2023-12-20T01:15:01;6.50;99.90
62339;DHT22;48368;53.406;6.214;2023-12-20T01:17:27;6.50;99.90
62339;DHT22;48368;53.406;6.214;2023-12-20T01:19:53;6.40;99.90
62339;DHT22;48368;53.406;6.214;2023-12-20T01:22:18;6.40;99.90
62339;DHT22;48368;53.406;6.214;2023-12-20T01:24:56;6.50;99.90
62339;DHT22;48368;53.406;6.214;2023-12-20T01:27:24;6.50;99.90
62339;DHT22;48368;53.406;6.214;2023-12-20T01:30:04;6.50;99.90
62339;DHT22;48368;53.406;6.214;2023-12-20T01:32:30;6.50;99.90
62339;DHT22;48368;53.406;6.214;2023-12-20T01:34:56;6.50;99.90
62339;DHT22;48368;53.406;6.214;2023-12-20T01:37:21;6.50;99.90
62339;DHT22;48368;53.406;6.214;2023-12-20T01:39:49;6.60;99.90
62339;DHT22;48368;53.406;6.214;2023-12-20T01:42:15;6.60;99.90
62339;DHT22;48368;53.406;6.214;2023-12-20T01:44:40;6.70;99.90
62339;DHT22;48368;53.406;6.214;2023-12-20T01:47:07;6.70;99.90
62339;DHT22;48368;53.406;6.214;2023-12-20T01:49:33;6.70;99.90
62339;DHT22;48368;53.406;6.214;2023-12-20T01:51:58;6.70;99.90
62339;DHT22;48368;53.406;6.214;2023-12-20T01:54:24;6.70;99.90
62339;DHT22;48368;53.406;6.214;2023-12-20T01:56:50;6.70;99.90
62339;DHT22;48368;53.406;6.214;2023-12-20T01:59:18;6.80;99.90
62339;DHT22;48368;53.406;6.214;2023-12-20T02:01:44;6.80;99.90
62339;DHT22;48368;53.406;6.214;2023-12-20T02:04:10;6.80;99.90
62339;DHT22;48368;53.406;6.214;2023-12-20T02:06:37;6.80;99.90
62339;DHT22;48368;53.406;6.214;2023-12-20T02:09:05;6.80;99.90
62339;DHT22;48368;53.406;6.214;2023-12-20T02:11:30;6.90;99.90
62339;DHT22;48368;53.406;6.214;2023-12-20T02:13:56;7.00;99.90
62339;DHT22;48368;53.406;6.214;2023-12-20T02:16:22;7.10;99.90
62339;DHT22;48368;53.406;6.214;2023-12-20T02:18:48;7.10;99.90
62339;DHT22;48368;53.406;6.214;2023-12-20T02:21:14;7.00;99.90
62339;DHT22;48368;53.406;6.214;2023-12-20T02:23:40;7.00;99.90
62339;DHT22;48368;53.406;6.214;2023-12-20T02:26:06;6.90;99.90
62339;DHT22;48368;53.406;6.214;2023-12-20T02:28:32;6.90;99.90
62339;DHT22;48368;53.406;6.214;2023-12-20T02:30:58;6.90;99.90
62339;DHT22;48368;53.406;6.214;2023-12-20T02:33:24;6.90;99.90
62339;DHT22;48368;53.406;6.214;2023-12-20T02:35:50;6.90;99.90
62339;DHT22;48368;53.406;6.214;2023-12-20T02:38:15;7.00;99.90
62339;DHT22;48368;53.406;6.214;2023-12-20T02:40:41;7.10;99.90
62339;DHT22;48368;53.406;6.214;2023-12-20T02:43:07;7.10;99.90
62339;DHT22;48368;53.406;6.214;2023-12-20T02:45:32;7.20;99.90
62339;DHT22;48368;53.406;6.214;2023-12-20T02:47:58;7.10;99.90
62339;DHT22;48368;53.406;6.214;2023-12-20T02:50:24;7.20;99.90
62339;DHT22;48368;53.406;6.214;2023-12-20T02:52:49;7.20;99.90
62339;DHT22;48368;53.406;6.214;2023-12-20T02:55:15;7.20;99.90
62339;DHT22;48368;53.406;6.214;2023-12-20T02:57:40;7.20;99.90
62339;DHT22;48368;53.406;6.214;2023-12-20T03:00:08;7.20;99.90
62339;DHT22;48368;53.406;6.214;2023-12-20T03:02:35;7.20;99.90
62339;DHT22;48368;53.406;6.214;2023-12-20T03:05:01;7.10;99.90
62339;DHT22;48368;53.406;6.214;2023-12-20T03:07:26;7.10;99.90
62339;DHT22;48368;53.406;6.214;2023-12-20T03:09:52;7.00;99.90
62339;DHT22;48368;53.406;6.214;2023-12-20T03:12:18;6.90;99.90
62339;DHT22;48368;53.406;6.214;2023-12-20T03:14:44;6.70;99.90
62339;DHT22;48368;53.406;6.214;2023-12-20T03:17:10;6.70;99.90
62339;DHT22;48368;53.406;6.214;2023-12-20T03:19:39;6.70;99.90
62339;DHT22;48368;53.406;6.214;2023-12-20T03:22:04;6.70;99.90
62339;DHT22;48368;53.406;6.214;2023-12-20T03:24:30;6.70;99.90
62339;DHT22;48368;53.406;6.214;2023-12-20T03:26:55;6.80;99.90
62339;DHT22;48368;53.406;6.214;2023-12-20T03:29:21;6.80;99.90
62339;DHT22;48368;53.406;6.214;2023-12-20T03:31:47;6.90;99.90
62339;DHT22;48368;53.406;6.214;2023-12-20T03:34:12;6.90;99.90
62339;DHT22;48368;53.406;6.214;2023-12-20T03:36:38;7.00;99.90
62339;DHT22;48368;53.406;6.214;2023-12-20T03:39:04;7.00;99.90
62339;DHT22;48368;53.406;6.214;2023-12-20T03:41:30;7.10;99.90
62339;DHT22;48368;53.406;6.214;2023-12-20T03:43:56;7.10;99.90
62339;DHT22;48368;53.406;6.214;2023-12-20T03:46:21;7.10;99.90
62339;DHT22;48368;53.406;6.214;2023-12-20T03:48:47;7.10;99.90
62339;DHT22;48368;53.406;6.214;2023-12-20T03:51:12;7.00;99.90
62339;DHT22;48368;53.406;6.214;2023-12-20T03:53:38;7.00;99.90
62339;DHT22;48368;53.406;6.214;2023-12-20T03:56:06;7.10;99.90
62339;DHT22;48368;53.406;6.214;2023-12-20T03:58:31;7.20;99.90
62339;DHT22;48368;53.406;6.214;2023-12-20T04:00:57;7.20;99.90
62339;DHT22;48368;53.406;6.214;2023-12-20T04:03:25;7.30;99.90
62339;DHT22;48368;53.406;6.214;2023-12-20T04:05:51;7.30;99.90
62339;DHT22;48368;53.406;6.214;2023-12-20T04:08:16;7.20;99.90
62339;DHT22;48368;53.406;6.214;2023-12-20T04:10:42;7.20;99.90
62339;DHT22;48368;53.406;6.214;2023-12-20T04:13:07;7.10;99.90
62339;DHT22;48368;53.406;6.214;2023-12-20T04:15:33;7.10;99.90
62339;DHT22;48368;53.406;6.214;2023-12-20T04:18:05;7.20;99.90
62339;DHT22;48368;53.406;6.214;2023-12-20T04:20:30;7.10;99.90
62339;DHT22;48368;53.406;6.214;2023-12-20T04:22:56;7.20;99.90
62339;DHT22;48368;53.406;6.214;2023-12-20T04:25:21;7.20;99.90
62339;DHT22;48368;53.406;6.214;2023-12-20T04:27:47;7.30;99.90
62339;DHT22;48368;53.406;6.214;2023-12-20T04:30:13;7.30;99.90
62339;DHT22;48368;53.406;6.214;2023-12-20T04:32:42;7.30;99.90
62339;DHT22;48368;53.406;6.214;2023-12-20T04:35:07;7.30;99.90
62339;DHT22;48368;53.406;6.214;2023-12-20T04:37:34;7.30;99.90
62339;DHT22;48368;53.406;6.214;2023-12-20T04:39:59;7.30;99.90
62339;DHT22;48368;53.406;6.214;2023-12-20T04:42:25;7.30;99.90
62339;DHT22;48368;53.406;6.214;2023-12-20T04:44:50;7.30;99.90
62339;DHT22;48368;53.406;6.214;2023-12-20T04:47:16;7.20;99.90
62339;DHT22;48368;53.406;6.214;2023-12-20T04:49:41;7.20;99.90
62339;DHT22;48368;53.406;6.214;2023-12-20T04:52:07;7.20;99.90
62339;DHT22;48368;53.406;6.214;2023-12-20T04:54:33;7.30;99.90
62339;DHT22;48368;53.406;6.214;2023-12-20T04:56:58;7.30;99.90
62339;DHT22;48368;53.406;6.214;2023-12-20T04:59:24;7.30;99.90
62339;DHT22;48368;53.406;6.214;2023-12-20T05:01:49;7.30;99.90
62339;DHT22;48368;53.406;6.214;2023-12-20T05:04:18;7.40;99.90
62339;DHT22;48368;53.406;6.214;2023-12-20T05:06:43;7.40;99.90
62339;DHT22;48368;53.406;6.214;2023-12-20T05:09:12;7.40;99.90
62339;DHT22;48368;53.406;6.214;2023-12-20T05:11:38;7.40;99.90
62339;DHT22;48368;53.406;6.214;2023-12-20T05:14:03;7.40;99.90
62339;DHT22;48368;53.406;6.214;2023-12-20T05:16:29;7.40;99.90
62339;DHT22;48368;53.406;6.214;2023-12-20T05:18:54;7.40;99.90
62339;DHT22;48368;53.406;6.214;2023-12-20T05:21:21;7.40;99.90
62339;DHT22;48368;53.406;6.214;2023-12-20T05:23:46;7.40;99.90
62339;DHT22;48368;53.406;6.214;2023-12-20T05:26:12;7.40;99.90
62339;DHT22;48368;53.406;6.214;2023-12-20T05:28:38;7.50;99.90
62339;DHT22;48368;53.406;6.214;2023-12-20T05:31:03;7.40;99.90
62339;DHT22;48368;53.406;6.214;2023-12-20T05:33:29;7.40;99.90
62339;DHT22;48368;53.406;6.214;2023-12-20T05:35:54;7.40;99.90
62339;DHT22;48368;53.406;6.214;2023-12-20T05:38:20;7.40;99.90
62339;DHT22;48368;53.406;6.214;2023-12-20T05:40:46;7.40;99.90
62339;DHT22;48368;53.406;6.214;2023-12-20T05:43:11;7.50;99.90
62339;DHT22;48368;53.406;6.214;2023-12-20T05:45:37;7.50;99.90
62339;DHT22;48368;53.406;6.214;2023-12-20T05:48:03;7.50;99.90
62339;DHT22;48368;53.406;6.214;2023-12-20T05:50:34;7.50;99.90
62339;DHT22;48368;53.406;6.214;2023-12-20T05:53:00;7.50;99.90
62339;DHT22;48368;53.406;6.214;2023-12-20T05:55:26;7.50;99.90
62339;DHT22;48368;53.406;6.214;2023-12-20T05:57:52;7.50;99.90
62339;DHT22;48368;53.406;6.214;2023-12-20T06:00:18;7.50;99.90
62339;DHT22;48368;53.406;6.214;2023-12-20T06:02:43;7.50;99.90
62339;DHT22;48368;53.406;6.214;2023-12-20T06:05:15;7.60;99.90
62339;DHT22;48368;53.406;6.214;2023-12-20T06:07:41;7.60;99.90
62339;DHT22;48368;53.406;6.214;2023-12-20T06:10:07;7.60;99.90
62339;DHT22;48368;53.406;6.214;2023-12-20T06:12:33;7.60;99.90
62339;DHT22;48368;53.406;6.214;2023-12-20T06:15:04;7.60;99.90
62339;DHT22;48368;53.406;6.214;2023-12-20T06:17:29;7.60;99.90
62339;DHT22;48368;53.406;6.214;2023-12-20T06:19:56;7.70;99.90
62339;DHT22;48368;53.406;6.214;2023-12-20T06:22:22;7.60;99.90
62339;DHT22;48368;53.406;6.214;2023-12-20T06:24:50;7.60;99.90
62339;DHT22;48368;53.406;6.214;2023-12-20T06:27:15;7.60;99.90
62339;DHT22;48368;53.406;6.214;2023-12-20T06:29:43;7.70;99.90
62339;DHT22;48368;53.406;6.214;2023-12-20T06:32:10;7.70;99.90
62339;DHT22;48368;53.406;6.214;2023-12-20T06:34:36;7.70;99.90
62339;DHT22;48368;53.406;6.214;2023-12-20T06:37:01;7.70;99.90
62339;DHT22;48368;53.406;6.214;2023-12-20T06:39:27;7.70;99.90
62339;DHT22;48368;53.406;6.214;2023-12-20T06:41:53;7.70;99.90
62339;DHT22;48368;53.406;6.214;2023-12-20T06:44:19;7.80;99.90
62339;DHT22;48368;53.406;6.214;2023-12-20T06:46:44;7.70;99.90
62339;DHT22;48368;53.406;6.214;2023-12-20T06:49:10;7.80;99.90
62339;DHT22;48368;53.406;6.214;2023-12-20T06:51:44;7.80;99.90
62339;DHT22;48368;53.406;6.214;2023-12-20T06:54:10;7.80;99.90
62339;DHT22;48368;53.406;6.214;2023-12-20T06:56:38;7.80;99.90
62339;DHT22;48368;53.406;6.214;2023-12-20T06:59:03;7.80;99.90
62339;DHT22;48368;53.406;6.214;2023-12-20T07:01:29;7.80;99.90
62339;DHT22;48368;53.406;6.214;2023-12-20T07:03:55;7.90;99.90
62339;DHT22;48368;53.406;6.214;2023-12-20T07:06:20;7.90;99.90
62339;DHT22;48368;53.406;6.214;2023-12-20T07:08:46;7.90;99.90
62339;DHT22;48368;53.406;6.214;2023-12-20T07:11:12;7.90;99.90
62339;DHT22;48368;53.406;6.214;2023-12-20T07:13:40;7.90;99.90
62339;DHT22;48368;53.406;6.214;2023-12-20T07:16:09;7.90;99.90
62339;DHT22;48368;53.406;6.214;2023-12-20T07:18:37;7.90;99.90
62339;DHT22;48368;53.406;6.214;2023-12-20T07:21:03;8.00;99.90
62339;DHT22;48368;53.406;6.214;2023-12-20T07:23:29;8.00;99.90
62339;DHT22;48368;53.406;6.214;2023-12-20T07:25:55;8.00;99.90
62339;DHT22;48368;53.406;6.214;2023-12-20T07:28:20;8.00;99.90
62339;DHT22;48368;53.406;6.214;2023-12-20T07:30:46;8.00;99.90
62339;DHT22;48368;53.406;6.214;2023-12-20T07:33:11;7.90;99.90
62339;DHT22;48368;53.406;6.214;2023-12-20T07:35:38;7.90;99.90
62339;DHT22;48368;53.406;6.214;2023-12-20T07:38:03;7.90;99.90
62339;DHT22;48368;53.406;6.214;2023-12-20T07:40:29;8.00;99.90
62339;DHT22;48368;53.406;6.214;2023-12-20T07:42:55;8.00;99.90
62339;DHT22;48368;53.406;6.214;2023-12-20T07:45:20;7.90;99.90
62339;DHT22;48368;53.406;6.214;2023-12-20T07:47:46;7.90;99.90
62339;DHT22;48368;53.406;6.214;2023-12-20T07:50:11;7.90;99.90
62339;DHT22;48368;53.406;6.214;2023-12-20T07:52:39;7.90;99.90
62339;DHT22;48368;53.406;6.214;2023-12-20T07:55:05;7.90;99.90
62339;DHT22;48368;53.406;6.214;2023-12-20T07:57:31;8.00;99.90
62339;DHT22;48368;53.406;6.214;2023-12-20T07:59:56;8.00;99.90
62339;DHT22;48368;53.406;6.214;2023-12-20T08:02:22;8.00;99.90
62339;DHT22;48368;53.406;6.214;2023-12-20T08:04:50;8.00;99.90
62339;DHT22;48368;53.406;6.214;2023-12-20T08:07:16;8.00;99.90
62339;DHT22;48368;53.406;6.214;2023-12-20T08:09:42;7.50;99.90
62339;DHT22;48368;53.406;6.214;2023-12-20T08:12:09;7.10;99.90
62339;DHT22;48368;53.406;6.214;2023-12-20T08:14:35;6.70;99.90
62339;DHT22;48368;53.406;6.214;2023-12-20T08:17:00;6.60;99.90
62339;DHT22;48368;53.406;6.214;2023-12-20T08:19:26;6.50;99.90
62339;DHT22;48368;53.406;6.214;2023-12-20T08:21:51;6.50;99.90
62339;DHT22;48368;53.406;6.214;2023-12-20T08:24:17;6.50;99.90
62339;DHT22;48368;53.406;6.214;2023-12-20T08:26:42;6.50;99.90
62339;DHT22;48368;53.406;6.214;2023-12-20T08:29:08;6.50;99.90
62339;DHT22;48368;53.406;6.214;2023-12-20T08:31:34;6.50;99.90
62339;DHT22;48368;53.406;6.214;2023-12-20T08:33:59;6.60;99.90
62339;DHT22;48368;53.406;6.214;2023-12-20T08:36:25;6.50;99.90
62339;DHT22;48368;53.406;6.214;2023-12-20T08:38:51;6.60;99.90
62339;DHT22;48368;53.406;6.214;2023-12-20T08:41:17;6.60;99.90
62339;DHT22;48368;53.406;6.214;2023-12-20T08:43:43;6.60;99.90
62339;DHT22;48368;53.406;6.214;2023-12-20T08:46:08;6.60;99.90
62339;DHT22;48368;53.406;6.214;2023-12-20T08:48:40;6.60;99.90
62339;DHT22;48368;53.406;6.214;2023-12-20T08:51:06;6.60;99.90
62339;DHT22;48368;53.406;6.214;2023-12-20T08:53:35;6.60;99.90
62339;DHT22;48368;53.406;6.214;2023-12-20T08:56:00;6.70;99.90
62339;DHT22;48368;53.406;6.214;2023-12-20T08:58:28;6.60;99.90
62339;DHT22;48368;53.406;6.214;2023-12-20T09:00:56;6.60;99.90
62339;DHT22;48368;53.406;6.214;2023-12-20T09:03:22;6.60;99.90
62339;DHT22;48368;53.406;6.214;2023-12-20T09:05:48;6.60;99.90
62339;DHT22;48368;53.406;6.214;2023-12-20T09:08:23;6.60;99.90
62339;DHT22;48368;53.406;6.214;2023-12-20T09:10:49;6.60;99.90
62339;DHT22;48368;53.406;6.214;2023-12-20T09:13:14;6.60;99.90
62339;DHT22;48368;53.406;6.214;2023-12-20T09:15:40;6.60;99.90
62339;DHT22;48368;53.406;6.214;2023-12-20T09:18:06;6.60;99.90
62339;DHT22;48368;53.406;6.214;2023-12-20T09:20:31;6.70;99.90
62339;DHT22;48368;53.406;6.214;2023-12-20T09:22:57;6.70;99.90
62339;DHT22;48368;53.406;6.214;2023-12-20T09:25:23;6.80;99.90
62339;DHT22;48368;53.406;6.214;2023-12-20T09:27:48;6.80;99.90
62339;DHT22;48368;53.406;6.214;2023-12-20T09:30:14;6.90;99.90
62339;DHT22;48368;53.406;6.214;2023-12-20T09:32:40;6.90;99.90
62339;DHT22;48368;53.406;6.214;2023-12-20T09:35:05;7.00;99.90
62339;DHT22;48368;53.406;6.214;2023-12-20T09:37:32;7.00;99.90
62339;DHT22;48368;53.406;6.214;2023-12-20T09:39:57;7.10;99.90
62339;DHT22;48368;53.406;6.214;2023-12-20T09:42:44;7.10;99.90
62339;DHT22;48368;53.406;6.214;2023-12-20T09:45:13;7.20;99.90
62339;DHT22;48368;53.406;6.214;2023-12-20T09:47:40;7.30;99.90
62339;DHT22;48368;53.406;6.214;2023-12-20T09:50:06;7.30;99.90
62339;DHT22;48368;53.406;6.214;2023-12-20T09:52:34;7.40;99.90
62339;DHT22;48368;53.406;6.214;2023-12-20T09:55:04;7.40;99.90
62339;DHT22;48368;53.406;6.214;2023-12-20T09:57:32;7.50;99.90
62339;DHT22;48368;53.406;6.214;2023-12-20T09:59:57;7.50;99.90
62339;DHT22;48368;53.406;6.214;2023-12-20T10:02:25;7.60;99.90
62339;DHT22;48368;53.406;6.214;2023-12-20T10:04:54;7.60;99.90
62339;DHT22;48368;53.406;6.214;2023-12-20T10:07:19;7.60;99.90
62339;DHT22;48368;53.406;6.214;2023-12-20T10:09:46;7.60;99.90
62339;DHT22;48368;53.406;6.214;2023-12-20T10:12:12;7.60;99.90
62339;DHT22;48368;53.406;6.214;2023-12-20T10:14:39;7.60;99.90
62339;DHT22;48368;53.406;6.214;2023-12-20T10:17:05;7.60;99.90
62339;DHT22;48368;53.406;6.214;2023-12-20T10:19:33;7.60;99.90
62339;DHT22;48368;53.406;6.214;2023-12-20T10:21:59;7.70;99.90
62339;DHT22;48368;53.406;6.214;2023-12-20T10:24:25;7.70;99.90
62339;DHT22;48368;53.406;6.214;2023-12-20T10:27:04;7.60;99.90
62339;DHT22;48368;53.406;6.214;2023-12-20T10:29:36;7.60;99.90
62339;DHT22;48368;53.406;6.214;2023-12-20T10:32:34;7.70;99.90
62339;DHT22;48368;53.406;6.214;2023-12-20T10:35:00;7.70;99.90
62339;DHT22;48368;53.406;6.214;2023-12-20T10:37:26;7.80;99.90
62339;DHT22;48368;53.406;6.214;2023-12-20T10:39:53;7.70;99.90
62339;DHT22;48368;53.406;6.214;2023-12-20T10:42:28;7.80;99.90
62339;DHT22;48368;53.406;6.214;2023-12-20T10:44:55;7.80;99.90
62339;DHT22;48368;53.406;6.214;2023-12-20T10:47:21;7.80;99.90
62339;DHT22;48368;53.406;6.214;2023-12-20T10:49:49;7.80;99.90
62339;DHT22;48368;53.406;6.214;2023-12-20T10:52:16;7.80;99.90
62339;DHT22;48368;53.406;6.214;2023-12-20T10:54:46;7.80;99.90
62339;DHT22;48368;53.406;6.214;2023-12-20T10:57:12;7.80;99.90
62339;DHT22;48368;53.406;6.214;2023-12-20T10:59:37;7.90;99.90
62339;DHT22;48368;53.406;6.214;2023-12-20T11:02:04;7.90;99.90
62339;DHT22;48368;53.406;6.214;2023-12-20T11:04:56;7.90;99.90
62339;DHT22;48368;53.406;6.214;2023-12-20T11:07:32;7.90;99.90
62339;DHT22;48368;53.406;6.214;2023-12-20T11:10:16;8.00;99.90
62339;DHT22;48368;53.406;6.214;2023-12-20T11:12:50;8.10;99.90
62339;DHT22;48368;53.406;6.214;2023-12-20T11:15:18;8.10;99.90
62339;DHT22;48368;53.406;6.214;2023-12-20T11:17:54;8.10;99.90
62339;DHT22;48368;53.406;6.214;2023-12-20T11:20:23;8.10;99.90
62339;DHT22;48368;53.406;6.214;2023-12-20T11:22:54;7.90;99.90
62339;DHT22;48368;53.406;6.214;2023-12-20T11:25:23;7.90;99.90
62339;DHT22;48368;53.406;6.214;2023-12-20T11:28:23;7.90;99.90
62339;DHT22;48368;53.406;6.214;2023-12-20T11:30:54;8.00;99.90
62339;DHT22;48368;53.406;6.214;2023-12-20T11:33:29;7.90;99.90
62339;DHT22;48368;53.406;6.214;2023-12-20T11:35:56;8.00;99.90
62339;DHT22;48368;53.406;6.214;2023-12-20T11:38:22;8.00;99.90
62339;DHT22;48368;53.406;6.214;2023-12-20T11:40:49;7.90;99.90
62339;DHT22;48368;53.406;6.214;2023-12-20T11:43:31;7.90;99.90
62339;DHT22;48368;53.406;6.214;2023-12-20T11:46:05;7.90;99.90
62339;DHT22;48368;53.406;6.214;2023-12-20T11:48:33;7.90;99.90
62339;DHT22;48368;53.406;6.214;2023-12-20T11:51:00;8.00;99.90
62339;DHT22;48368;53.406;6.214;2023-12-20T11:53:25;8.00;99.90
62339;DHT22;48368;53.406;6.214;2023-12-20T11:55:51;8.00;99.90
62339;DHT22;48368;53.406;6.214;2023-12-20T11:58:20;8.10;99.90
62339;DHT22;48368;53.406;6.214;2023-12-20T12:00:45;8.10;99.90
62339;DHT22;48368;53.406;6.214;2023-12-20T12:03:14;8.00;99.90
62339;DHT22;48368;53.406;6.214;2023-12-20T12:05:41;8.10;99.90
62339;DHT22;48368;53.406;6.214;2023-12-20T12:08:06;8.10;99.90
62339;DHT22;48368;53.406;6.214;2023-12-20T12:10:36;8.10;99.90
62339;DHT22;48368;53.406;6.214;2023-12-20T12:13:04;8.00;99.90
62339;DHT22;48368;53.406;6.214;2023-12-20T12:15:30;8.00;99.90
62339;DHT22;48368;53.406;6.214;2023-12-20T12:17:56;8.00;99.90
62339;DHT22;48368;53.406;6.214;2023-12-20T12:20:23;7.90;99.90
62339;DHT22;48368;53.406;6.214;2023-12-20T12:23:02;8.00;99.90
62339;DHT22;48368;53.406;6.214;2023-12-20T12:25:29;8.00;99.90
62339;DHT22;48368;53.406;6.214;2023-12-20T12:27:57;7.90;99.90
62339;DHT22;48368;53.406;6.214;2023-12-20T12:30:23;7.90;99.90
62339;DHT22;48368;53.406;6.214;2023-12-20T12:32:48;7.80;99.90
62339;DHT22;48368;53.406;6.214;2023-12-20T12:35:14;7.80;99.90
62339;DHT22;48368;53.406;6.214;2023-12-20T12:37:40;7.90;99.90
62339;DHT22;48368;53.406;6.214;2023-12-20T12:40:16;7.90;99.90
62339;DHT22;48368;53.406;6.214;2023-12-20T12:42:43;8.00;99.90
62339;DHT22;48368;53.406;6.214;2023-12-20T12:45:10;8.00;99.90
62339;DHT22;48368;53.406;6.214;2023-12-20T12:47:37;8.00;99.90
62339;DHT22;48368;53.406;6.214;2023-12-20T12:50:06;8.00;99.90
62339;DHT22;48368;53.406;6.214;2023-12-20T12:52:34;7.90;99.90
62339;DHT22;48368;53.406;6.214;2023-12-20T12:55:00;8.00;99.90
62339;DHT22;48368;53.406;6.214;2023-12-20T12:57:26;7.90;99.90
62339;DHT22;48368;53.406;6.214;2023-12-20T12:59:53;7.90;99.90
62339;DHT22;48368;53.406;6.214;2023-12-20T13:02:18;7.90;99.90
62339;DHT22;48368;53.406;6.214;2023-12-20T13:04:44;7.90;99.90
62339;DHT22;48368;53.406;6.214;2023-12-20T13:07:10;7.90;99.90
62339;DHT22;48368;53.406;6.214;2023-12-20T13:09:39;7.80;99.90
62339;DHT22;48368;53.406;6.214;2023-12-20T13:12:05;7.80;99.90
62339;DHT22;48368;53.406;6.214;2023-12-20T13:14:35;7.80;99.90
62339;DHT22;48368;53.406;6.214;2023-12-20T13:17:02;7.70;99.90
62339;DHT22;48368;53.406;6.214;2023-12-20T13:19:29;7.70;99.90
62339;DHT22;48368;53.406;6.214;2023-12-20T13:21:55;7.60;99.90
62339;DHT22;48368;53.406;6.214;2023-12-20T13:24:21;7.70;99.90
62339;DHT22;48368;53.406;6.214;2023-12-20T13:26:47;7.70;99.90
62339;DHT22;48368;53.406;6.214;2023-12-20T13:29:18;7.60;99.90
62339;DHT22;48368;53.406;6.214;2023-12-20T13:31:45;7.60;99.90
62339;DHT22;48368;53.406;6.214;2023-12-20T13:34:11;7.60;99.90
62339;DHT22;48368;53.406;6.214;2023-12-20T13:36:38;7.60;99.90
62339;DHT22;48368;53.406;6.214;2023-12-20T13:39:04;7.60;99.90
62339;DHT22;48368;53.406;6.214;2023-12-20T13:41:31;7.60;99.90
62339;DHT22;48368;53.406;6.214;2023-12-20T13:43:56;7.50;99.90
62339;DHT22;48368;53.406;6.214;2023-12-20T13:46:22;7.50;99.90
62339;DHT22;48368;53.406;6.214;2023-12-20T13:48:48;7.50;99.90
62339;DHT22;48368;53.406;6.214;2023-12-20T13:51:15;7.50;99.90
62339;DHT22;48368;53.406;6.214;2023-12-20T13:53:40;7.40;99.90
62339;DHT22;48368;53.406;6.214;2023-12-20T13:56:06;7.30;99.90
62339;DHT22;48368;53.406;6.214;2023-12-20T13:58:32;7.30;99.90
62339;DHT22;48368;53.406;6.214;2023-12-20T14:00:58;7.30;99.90
62339;DHT22;48368;53.406;6.214;2023-12-20T14:03:23;7.30;99.90
62339;DHT22;48368;53.406;6.214;2023-12-20T14:05:49;7.40;99.90
62339;DHT22;48368;53.406;6.214;2023-12-20T14:08:15;7.30;99.90
62339;DHT22;48368;53.406;6.214;2023-12-20T14:10:40;7.10;99.90
62339;DHT22;48368;53.406;6.214;2023-12-20T14:13:06;7.00;99.90
62339;DHT22;48368;53.406;6.214;2023-12-20T14:15:31;6.90;99.90
62339;DHT22;48368;53.406;6.214;2023-12-20T14:18:06;6.80;99.90
62339;DHT22;48368;53.406;6.214;2023-12-20T14:20:35;6.70;99.90
62339;DHT22;48368;53.406;6.214;2023-12-20T14:23:03;6.70;99.90
62339;DHT22;48368;53.406;6.214;2023-12-20T14:25:29;6.70;99.90
62339;DHT22;48368;53.406;6.214;2023-12-20T14:27:55;6.60;99.90
62339;DHT22;48368;53.406;6.214;2023-12-20T14:30:21;6.50;99.90
62339;DHT22;48368;53.406;6.214;2023-12-20T14:32:46;6.60;99.90
62339;DHT22;48368;53.406;6.214;2023-12-20T14:35:13;6.60;99.90
62339;DHT22;48368;53.406;6.214;2023-12-20T14:37:39;6.60;99.90
62339;DHT22;48368;53.406;6.214;2023-12-20T14:40:07;6.60;99.90
62339;DHT22;48368;53.406;6.214;2023-12-20T14:42:36;6.70;99.90
62339;DHT22;48368;53.406;6.214;2023-12-20T14:45:02;6.60;99.90
62339;DHT22;48368;53.406;6.214;2023-12-20T14:47:28;6.60;99.90
62339;DHT22;48368;53.406;6.214;2023-12-20T14:49:55;6.60;99.90
62339;DHT22;48368;53.406;6.214;2023-12-20T14:52:20;6.60;99.90
62339;DHT22;48368;53.406;6.214;2023-12-20T14:54:46;6.60;99.90
62339;DHT22;48368;53.406;6.214;2023-12-20T14:57:11;6.60;99.90
62339;DHT22;48368;53.406;6.214;2023-12-20T14:59:37;6.60;99.90
62339;DHT22;48368;53.406;6.214;2023-12-20T15:02:03;6.60;99.90
62339;DHT22;48368;53.406;6.214;2023-12-20T15:04:33;6.60;99.90
62339;DHT22;48368;53.406;6.214;2023-12-20T15:06:59;6.60;99.90
62339;DHT22;48368;53.406;6.214;2023-12-20T15:09:26;6.60;99.90
62339;DHT22;48368;53.406;6.214;2023-12-20T15:11:54;6.60;99.90
62339;DHT22;48368;53.406;6.214;2023-12-20T15:14:20;6.70;99.90
62339;DHT22;48368;53.406;6.214;2023-12-20T15:16:46;6.70;99.90
62339;DHT22;48368;53.406;6.214;2023-12-20T15:19:15;6.70;99.90
62339;DHT22;48368;53.406;6.214;2023-12-20T15:21:41;6.70;99.90
62339;DHT22;48368;53.406;6.214;2023-12-20T15:24:11;6.80;99.90
62339;DHT22;48368;53.406;6.214;2023-12-20T15:26:42;6.80;99.90
62339;DHT22;48368;53.406;6.214;2023-12-20T15:29:09;6.80;99.90
62339;DHT22;48368;53.406;6.214;2023-12-20T15:31:45;6.80;99.90
62339;DHT22;48368;53.406;6.214;2023-12-20T15:34:11;6.90;99.90
62339;DHT22;48368;53.406;6.214;2023-12-20T15:36:37;7.00;99.90
62339;DHT22;48368;53.406;6.214;2023-12-20T15:39:06;6.90;99.90
62339;DHT22;48368;53.406;6.214;2023-12-20T15:41:34;6.90;99.90
62339;DHT22;48368;53.406;6.214;2023-12-20T15:44:00;6.90;99.90